sensor_id;sensor_type;location;lat;lon;timestamp;temperature;humidity
6468;DHT22;3267;48.794;9.928;2022-12-18T05:19:22;2.00;99.90
6468;DHT22;3267;48.794;9.928;2022-12-18T05:21:48;1.80;99.90
6468;DHT22;3267;48.794;9.928;2022-12-18T05:24:14;1.70;99.90
6468;DHT22;3267;48.794;9.928;2022-12-18T05:26:40;1.50;99.90
6468;DHT22;3267;48.794;9.928;2022-12-18T05:31:32;2.20;99.90
6468;DHT22;3267;48.794;9.928;2022-12-18T05:33:58;2.20;99.90
6468;DHT22;3267;48.794;9.928;2022-12-18T05:36:24;2.30;99.90
6468;DHT22;3267;48.794;9.928;2022-12-18T05:38:49;2.20;99.90
6468;DHT22;3267;48.794;9.928;2022-12-18T05:41:15;2.80;99.90
6468;DHT22;3267;48.794;9.928;2022-12-18T05:43:41;3.10;99.90
6468;DHT22;3267;48.794;9.928;2022-12-18T05:46:12;2.80;99.90
6468;DHT22;3267;48.794;9.928;2022-12-18T05:48:38;3.30;99.90
6468;DHT22;3267;48.794;9.928;2022-12-18T05:51:10;3.10;99.90
6468;DHT22;3267;48.794;9.928;2022-12-18T05:53:37;3.30;99.90
6468;DHT22;3267;48.794;9.928;2022-12-18T05:56:05;2.90;99.90
6468;DHT22;3267;48.794;9.928;2022-12-18T05:58:31;2.90;99.90
6468;DHT22;3267;48.794;9.928;2022-12-18T06:00:57;2.50;99.90
6468;DHT22;3267;48.794;9.928;2022-12-18T06:03:24;2.30;99.90
6468;DHT22;3267;48.794;9.928;2022-12-18T06:05:50;2.40;99.90
6468;DHT22;3267;48.794;9.928;2022-12-18T06:08:16;1.90;99.90
6468;DHT22;3267;48.794;9.928;2022-12-18T06:10:41;1.50;99.90
6468;DHT22;3267;48.794;9.928;2022-12-18T06:13:08;2.10;99.90
6468;DHT22;3267;48.794;9.928;2022-12-18T06:15:37;2.30;99.90
6468;DHT22;3267;48.794;9.928;2022-12-18T06:18:03;2.20;99.90
6468;DHT22;3267;48.794;9.928;2022-12-18T06:20:30;3.20;99.90
6468;DHT22;3267;48.794;9.928;2022-12-18T06:25:22;2.90;99.90
6468;DHT22;3267;48.794;9.928;2022-12-18T06:27:48;3.60;99.90
6468;DHT22;3267;48.794;9.928;2022-12-18T06:30:14;3.60;99.90
6468;DHT22;3267;48.794;9.928;2022-12-18T06:32:40;3.70;99.90
6468;DHT22;3267;48.794;9.928;2022-12-18T06:35:06;3.40;99.90
6468;DHT22;3267;48.794;9.928;2022-12-18T06:37:32;3.70;99.90
6468;DHT22;3267;48.794;9.928;2022-12-18T06:39:58;3.90;99.90
6468;DHT22;3267;48.794;9.928;2022-12-18T06:42:24;4.30;99.90
6468;DHT22;3267;48.794;9.928;2022-12-18T06:44:50;4.30;99.90
6468;DHT22;3267;48.794;9.928;2022-12-18T06:47:16;4.20;99.90
6468;DHT22;3267;48.794;9.928;2022-12-18T06:49:42;4.00;99.90
6468;DHT22;3267;48.794;9.928;2022-12-18T06:52:08;4.00;99.90
6468;DHT22;3267;48.794;9.928;2022-12-18T06:54:34;3.80;99.90
6468;DHT22;3267;48.794;9.928;2022-12-18T06:57:00;3.30;99.90
6468;DHT22;3267;48.794;9.928;2022-12-18T06:59:25;3.30;99.90
6468;DHT22;3267;48.794;9.928;2022-12-18T07:01:51;3.20;99.90
6468;DHT22;3267;48.794;9.928;2022-12-18T07:04:17;3.20;99.90
6468;DHT22;3267;48.794;9.928;2022-12-18T07:06:43;2.80;99.90
6468;DHT22;3267;48.794;9.928;2022-12-18T07:09:09;2.90;99.90
6468;DHT22;3267;48.794;9.928;2022-12-18T07:11:35;2.80;99.90
6468;DHT22;3267;48.794;9.928;2022-12-18T07:14:01;3.30;99.90
6468;DHT22;3267;48.794;9.928;2022-12-18T07:16:27;2.70;99.90
6468;DHT22;3267;48.794;9.928;2022-12-18T07:18:55;2.90;99.90
6468;DHT22;3267;48.794;9.928;2022-12-18T07:21:21;3.00;99.90
6468;DHT22;3267;48.794;9.928;2022-12-18T07:23:47;3.30;99.90
6468;DHT22;3267;48.794;9.928;2022-12-18T07:26:16;3.10;99.90
6468;DHT22;3267;48.794;9.928;2022-12-18T07:28:42;3.00;99.90
6468;DHT22;3267;48.794;9.928;2022-12-18T07:31:14;2.60;99.90
6468;DHT22;3267;48.794;9.928;2022-12-18T07:33:40;2.50;99.90
6468;DHT22;3267;48.794;9.928;2022-12-18T07:36:07;2.60;99.90
6468;DHT22;3267;48.794;9.928;2022-12-18T07:38:34;2.50;99.90
6468;DHT22;3267;48.794;9.928;2022-12-18T07:41:04;2.50;99.90
6468;DHT22;3267;48.794;9.928;2022-12-18T07:43:31;1.80;99.90
6468;DHT22;3267;48.794;9.928;2022-12-18T07:45:56;1.10;99.90
6468;DHT22;3267;48.794;9.928;2022-12-18T07:48:22;1.40;99.90
6468;DHT22;3267;48.794;9.928;2022-12-18T07:50:48;1.30;99.90
6468;DHT22;3267;48.794;9.928;2022-12-18T07:53:14;1.70;99.90
6468;DHT22;3267;48.794;9.928;2022-12-18T07:55:41;2.30;99.90
6468;DHT22;3267;48.794;9.928;2022-12-18T07:58:07;1.60;99.90
6468;DHT22;3267;48.794;9.928;2022-12-18T08:00:34;1.50;99.90
6468;DHT22;3267;48.794;9.928;2022-12-18T08:03:00;2.10;99.90
6468;DHT22;3267;48.794;9.928;2022-12-18T08:05:26;2.00;99.90
6468;DHT22;3267;48.794;9.928;2022-12-18T08:07:53;1.70;99.90
6468;DHT22;3267;48.794;9.928;2022-12-18T08:10:19;1.80;99.90
6468;DHT22;3267;48.794;9.928;2022-12-18T08:12:45;4.20;99.90
6468;DHT22;3267;48.794;9.928;2022-12-18T08:15:14;1.50;99.90
6468;DHT22;3267;48.794;9.928;2022-12-18T08:17:40;1.40;99.90
6468;DHT22;3267;48.794;9.928;2022-12-18T08:20:06;1.40;99.90
6468;DHT22;3267;48.794;9.928;2022-12-18T08:22:34;1.00;99.90
6468;DHT22;3267;48.794;9.928;2022-12-18T08:25:01;1.50;99.90
6468;DHT22;3267;48.794;9.928;2022-12-18T08:27:31;1.60;99.90
6468;DHT22;3267;48.794;9.928;2022-12-18T08:29:58;2.00;99.90
6468;DHT22;3267;48.794;9.928;2022-12-18T08:32:25;1.90;99.90
6468;DHT22;3267;48.794;9.928;2022-12-18T08:34:52;1.70;99.90
6468;DHT22;3267;48.794;9.928;2022-12-18T08:37:18;2.20;99.90
6468;DHT22;3267;48.794;9.928;2022-12-18T08:39:43;2.50;99.90
6468;DHT22;3267;48.794;9.928;2022-12-18T08:42:10;2.50;99.90
6468;DHT22;3267;48.794;9.928;2022-12-18T08:47:20;1.70;99.90
6468;DHT22;3267;48.794;9.928;2022-12-18T08:49:46;1.50;99.90
6468;DHT22;3267;48.794;9.928;2022-12-18T08:52:12;1.30;99.90
6468;DHT22;3267;48.794;9.928;2022-12-18T08:54:38;1.40;99.90
6468;DHT22;3267;48.794;9.928;2022-12-18T08:57:03;1.50;99.90
6468;DHT22;3267;48.794;9.928;2022-12-18T08:59:29;1.90;99.90
6468;DHT22;3267;48.794;9.928;2022-12-18T09:04:22;2.40;99.90
6468;DHT22;3267;48.794;9.928;2022-12-18T09:06:48;2.30;99.90
6468;DHT22;3267;48.794;9.928;2022-12-18T09:11:40;1.30;99.90
6468;DHT22;3267;48.794;9.928;2022-12-18T09:14:06;0.80;99.90
6468;DHT22;3267;48.794;9.928;2022-12-18T09:16:32;1.30;99.90
6468;DHT22;3267;48.794;9.928;2022-12-18T09:19:01;1.30;99.90
6468;DHT22;3267;48.794;9.928;2022-12-18T09:21:32;2.00;99.90
6468;DHT22;3267;48.794;9.928;2022-12-18T09:23:59;2.20;99.90
6468;DHT22;3267;48.794;9.928;2022-12-18T09:26:25;2.10;99.90
6468;DHT22;3267;48.794;9.928;2022-12-18T09:31:20;1.90;99.90
6468;DHT22;3267;48.794;9.928;2022-12-18T09:33:47;1.50;99.90
6468;DHT22;3267;48.794;9.928;2022-12-18T09:36:15;1.70;99.90
6468;DHT22;3267;48.794;9.928;2022-12-18T09:38:41;1.60;99.90
6468;DHT22;3267;48.794;9.928;2022-12-18T09:46:57;1.90;99.90
6468;DHT22;3267;48.794;9.928;2022-12-18T09:49:29;2.50;99.90
6468;DHT22;3267;48.794;9.928;2022-12-18T09:52:05;2.30;99.90
6468;DHT22;3267;48.794;9.928;2022-12-18T09:57:45;1.40;99.90
6468;DHT22;3267;48.794;9.928;2022-12-18T10:00:21;1.80;99.90
6468;DHT22;3267;48.794;9.928;2022-12-18T10:02:47;1.70;99.90
6468;DHT22;3267;48.794;9.928;2022-12-18T10:05:24;1.50;99.90
6468;DHT22;3267;48.794;9.928;2022-12-18T10:08:02;1.40;99.90
6468;DHT22;3267;48.794;9.928;2022-12-18T10:15:58;2.80;99.90
6468;DHT22;3267;48.794;9.928;2022-12-18T10:20:58;3.60;99.90
6468;DHT22;3267;48.794;9.928;2022-12-18T10:26:01;3.00;99.90
6468;DHT22;3267;48.794;9.928;2022-12-18T10:28:30;3.20;99.90
6468;DHT22;3267;48.794;9.928;2022-12-18T10:30:56;3.40;99.90
6468;DHT22;3267;48.794;9.928;2022-12-18T10:33:24;3.60;99.90
6468;DHT22;3267;48.794;9.928;2022-12-18T10:35:51;4.20;99.90
6468;DHT22;3267;48.794;9.928;2022-12-18T10:40:53;4.00;99.90
6468;DHT22;3267;48.794;9.928;2022-12-18T10:43:28;4.10;99.90
6468;DHT22;3267;48.794;9.928;2022-12-18T10:48:53;4.00;99.90
6468;DHT22;3267;48.794;9.928;2022-12-18T10:51:31;4.30;99.90
6468;DHT22;3267;48.794;9.928;2022-12-18T10:54:03;4.90;99.90
6468;DHT22;3267;48.794;9.928;2022-12-18T10:56:31;4.70;99.90
6468;DHT22;3267;48.794;9.928;2022-12-18T10:59:10;4.90;99.90
6468;DHT22;3267;48.794;9.928;2022-12-18T11:01:53;5.30;99.90
6468;DHT22;3267;48.794;9.928;2022-12-18T11:04:21;5.00;99.90
6468;DHT22;3267;48.794;9.928;2022-12-18T11:07:26;5.00;99.90
6468;DHT22;3267;48.794;9.928;2022-12-18T11:10:02;4.80;99.90
6468;DHT22;3267;48.794;9.928;2022-12-18T11:12:29;4.80;99.90
6468;DHT22;3267;48.794;9.928;2022-12-18T11:14:55;4.10;99.90
6468;DHT22;3267;48.794;9.928;2022-12-18T11:17:32;4.60;99.90
6468;DHT22;3267;48.794;9.928;2022-12-18T11:20:20;4.60;99.90
6468;DHT22;3267;48.794;9.928;2022-12-18T11:23:02;4.30;99.90
6468;DHT22;3267;48.794;9.928;2022-12-18T11:25:30;4.70;99.90
6468;DHT22;3267;48.794;9.928;2022-12-18T11:27:59;4.60;99.90
6468;DHT22;3267;48.794;9.928;2022-12-18T11:30:34;4.90;99.90
6468;DHT22;3267;48.794;9.928;2022-12-18T11:33:04;5.10;99.90
6468;DHT22;3267;48.794;9.928;2022-12-18T11:38:26;5.30;99.90
6468;DHT22;3267;48.794;9.928;2022-12-18T11:41:00;5.10;99.90
6468;DHT22;3267;48.794;9.928;2022-12-18T11:43:33;5.00;99.90
6468;DHT22;3267;48.794;9.928;2022-12-18T11:46:04;4.70;99.90
6468;DHT22;3267;48.794;9.928;2022-12-18T11:48:41;5.00;99.90
6468;DHT22;3267;48.794;9.928;2022-12-18T11:51:25;5.20;99.90
6468;DHT22;3267;48.794;9.928;2022-12-18T11:53:52;4.90;99.90
6468;DHT22;3267;48.794;9.928;2022-12-18T11:56:36;4.70;99.90
6468;DHT22;3267;48.794;9.928;2022-12-18T11:59:08;4.50;99.90
6468;DHT22;3267;48.794;9.928;2022-12-18T12:01:59;4.70;99.90
6468;DHT22;3267;48.794;9.928;2022-12-18T12:16:18;4.40;99.90
6468;DHT22;3267;48.794;9.928;2022-12-18T12:19:00;4.40;99.90
6468;DHT22;3267;48.794;9.928;2022-12-18T12:21:40;5.20;99.90
6468;DHT22;3267;48.794;9.928;2022-12-18T12:27:01;5.10;99.90
6468;DHT22;3267;48.794;9.928;2022-12-18T12:30:38;5.70;99.90
6468;DHT22;3267;48.794;9.928;2022-12-18T12:38:23;5.30;99.90
6468;DHT22;3267;48.794;9.928;2022-12-18T12:41:00;5.60;99.90
6468;DHT22;3267;48.794;9.928;2022-12-18T12:50:53;4.60;99.90
6468;DHT22;3267;48.794;9.928;2022-12-18T12:53:25;4.20;99.90
6468;DHT22;3267;48.794;9.928;2022-12-18T12:55:52;3.90;99.90
6468;DHT22;3267;48.794;9.928;2022-12-18T12:58:28;4.20;99.90
6468;DHT22;3267;48.794;9.928;2022-12-18T13:03:58;3.80;99.90
6468;DHT22;3267;48.794;9.928;2022-12-18T13:09:02;4.40;99.90
6468;DHT22;3267;48.794;9.928;2022-12-18T13:11:57;5.40;99.90
6468;DHT22;3267;48.794;9.928;2022-12-18T13:14:45;6.40;99.90
6468;DHT22;3267;48.794;9.928;2022-12-18T13:19:43;5.50;99.90
6468;DHT22;3267;48.794;9.928;2022-12-18T13:22:33;5.60;99.90
6468;DHT22;3267;48.794;9.928;2022-12-18T13:25:00;5.30;99.90
6468;DHT22;3267;48.794;9.928;2022-12-18T13:38:22;4.30;99.90
6468;DHT22;3267;48.794;9.928;2022-12-18T13:48:25;4.20;99.90
6468;DHT22;3267;48.794;9.928;2022-12-18T13:50:58;4.10;99.90
6468;DHT22;3267;48.794;9.928;2022-12-18T13:53:30;4.10;99.90
6468;DHT22;3267;48.794;9.928;2022-12-18T13:55:58;5.80;99.90
6468;DHT22;3267;48.794;9.928;2022-12-18T13:58:24;4.80;99.90
6468;DHT22;3267;48.794;9.928;2022-12-18T14:00:50;6.00;99.90
6468;DHT22;3267;48.794;9.928;2022-12-18T14:03:24;4.40;99.90
6468;DHT22;3267;48.794;9.928;2022-12-18T14:06:01;4.40;99.90
6468;DHT22;3267;48.794;9.928;2022-12-18T14:08:33;5.60;99.90
6468;DHT22;3267;48.794;9.928;2022-12-18T14:11:01;5.00;99.90
6468;DHT22;3267;48.794;9.928;2022-12-18T14:13:32;4.90;99.90
6468;DHT22;3267;48.794;9.928;2022-12-18T14:16:01;5.90;99.90
6468;DHT22;3267;48.794;9.928;2022-12-18T14:21:21;4.60;99.90
6468;DHT22;3267;48.794;9.928;2022-12-18T14:23:48;4.70;99.90
6468;DHT22;3267;48.794;9.928;2022-12-18T14:28:52;4.50;99.90
6468;DHT22;3267;48.794;9.928;2022-12-18T14:31:24;4.30;99.90
6468;DHT22;3267;48.794;9.928;2022-12-18T14:33:52;4.40;99.90
6468;DHT22;3267;48.794;9.928;2022-12-18T14:36:21;4.20;99.90
6468;DHT22;3267;48.794;9.928;2022-12-18T14:38:56;3.80;99.90
6468;DHT22;3267;48.794;9.928;2022-12-18T14:41:23;4.10;99.90
6468;DHT22;3267;48.794;9.928;2022-12-18T14:43:51;4.30;99.90
6468;DHT22;3267;48.794;9.928;2022-12-18T14:46:36;5.00;99.90
6468;DHT22;3267;48.794;9.928;2022-12-18T14:51:56;4.10;99.90
6468;DHT22;3267;48.794;9.928;2022-12-18T14:54:23;4.60;99.90
6468;DHT22;3267;48.794;9.928;2022-12-18T14:59:26;5.90;99.90
6468;DHT22;3267;48.794;9.928;2022-12-18T15:02:15;5.80;99.90
6468;DHT22;3267;48.794;9.928;2022-12-18T15:04:44;3.80;99.90
6468;DHT22;3267;48.794;9.928;2022-12-18T15:07:17;3.90;99.90
6468;DHT22;3267;48.794;9.928;2022-12-18T15:10:30;4.00;99.90
6468;DHT22;3267;48.794;9.928;2022-12-18T15:20:49;3.30;99.90
6468;DHT22;3267;48.794;9.928;2022-12-18T15:25:45;3.50;99.90
6468;DHT22;3267;48.794;9.928;2022-12-18T15:36:22;2.40;99.90
6468;DHT22;3267;48.794;9.928;2022-12-18T15:38:53;2.50;99.90
6468;DHT22;3267;48.794;9.928;2022-12-18T15:41:21;2.50;99.90
6468;DHT22;3267;48.794;9.928;2022-12-18T15:43:49;2.90;99.90
6468;DHT22;3267;48.794;9.928;2022-12-18T15:46:23;2.80;99.90
6468;DHT22;3267;48.794;9.928;2022-12-18T15:48:51;2.90;99.90
6468;DHT22;3267;48.794;9.928;2022-12-18T15:53:46;3.80;99.90
6468;DHT22;3267;48.794;9.928;2022-12-18T15:56:14;3.10;99.90
6468;DHT22;3267;48.794;9.928;2022-12-18T15:59:02;3.30;99.90
6468;DHT22;3267;48.794;9.928;2022-12-18T16:01:30;3.50;99.90
6468;DHT22;3267;48.794;9.928;2022-12-18T16:03:57;3.40;99.90
6468;DHT22;3267;48.794;9.928;2022-12-18T16:06:23;2.80;99.90
6468;DHT22;3267;48.794;9.928;2022-12-18T16:08:52;2.60;99.90
6468;DHT22;3267;48.794;9.928;2022-12-18T16:11:27;4.70;99.90
6468;DHT22;3267;48.794;9.928;2022-12-18T16:14:11;2.20;99.90
6468;DHT22;3267;48.794;9.928;2022-12-18T16:16:38;5.40;99.90
6468;DHT22;3267;48.794;9.928;2022-12-18T16:19:04;2.60;99.90
6468;DHT22;3267;48.794;9.928;2022-12-18T16:21:30;2.70;99.90
6468;DHT22;3267;48.794;9.928;2022-12-18T16:23:56;3.80;99.90
6468;DHT22;3267;48.794;9.928;2022-12-18T16:26:21;4.00;99.90
6468;DHT22;3267;48.794;9.928;2022-12-18T16:28:47;4.00;99.90
6468;DHT22;3267;48.794;9.928;2022-12-18T16:31:13;4.00;99.90
6468;DHT22;3267;48.794;9.928;2022-12-18T16:33:39;4.90;99.90
6468;DHT22;3267;48.794;9.928;2022-12-18T16:36:05;3.20;99.90
6468;DHT22;3267;48.794;9.928;2022-12-18T16:38:32;3.10;99.90
6468;DHT22;3267;48.794;9.928;2022-12-18T16:40:58;3.00;99.90
6468;DHT22;3267;48.794;9.928;2022-12-18T16:43:42;3.20;99.90
6468;DHT22;3267;48.794;9.928;2022-12-18T16:46:08;3.10;99.90
6468;DHT22;3267;48.794;9.928;2022-12-18T16:48:34;2.70;99.90
6468;DHT22;3267;48.794;9.928;2022-12-18T16:51:03;2.20;99.90
6468;DHT22;3267;48.794;9.928;2022-12-18T16:53:29;2.20;99.90
6468;DHT22;3267;48.794;9.928;2022-12-18T16:58:25;2.00;99.90
6468;DHT22;3267;48.794;9.928;2022-12-18T17:00:51;4.30;99.90
6468;DHT22;3267;48.794;9.928;2022-12-18T17:03:17;4.30;99.90
6468;DHT22;3267;48.794;9.928;2022-12-18T17:05:43;2.40;99.90
6468;DHT22;3267;48.794;9.928;2022-12-18T17:08:09;2.30;99.90
6468;DHT22;3267;48.794;9.928;2022-12-18T17:10:34;2.10;99.90
6468;DHT22;3267;48.794;9.928;2022-12-18T17:13:00;3.30;99.90
6468;DHT22;3267;48.794;9.928;2022-12-18T17:15:26;4.60;99.90
6468;DHT22;3267;48.794;9.928;2022-12-18T17:17:52;3.30;99.90
6468;DHT22;3267;48.794;9.928;2022-12-18T17:20:18;3.90;99.90
6468;DHT22;3267;48.794;9.928;2022-12-18T17:22:44;3.70;99.90
6468;DHT22;3267;48.794;9.928;2022-12-18T17:25:10;3.80;99.90
6468;DHT22;3267;48.794;9.928;2022-12-18T17:27:35;3.10;99.90
6468;DHT22;3267;48.794;9.928;2022-12-18T17:30:02;2.60;99.90
6468;DHT22;3267;48.794;9.928;2022-12-18T17:34:54;1.90;99.90
6468;DHT22;3267;48.794;9.928;2022-12-18T17:37:20;2.30;99.90
6468;DHT22;3267;48.794;9.928;2022-12-18T17:39:46;2.00;99.90
6468;DHT22;3267;48.794;9.928;2022-12-18T17:42:12;2.40;99.90
6468;DHT22;3267;48.794;9.928;2022-12-18T17:44:39;2.40;99.90
6468;DHT22;3267;48.794;9.928;2022-12-18T17:47:07;1.90;99.90
6468;DHT22;3267;48.794;9.928;2022-12-18T17:49:36;2.00;99.90
6468;DHT22;3267;48.794;9.928;2022-12-18T17:54:29;1.50;99.90
6468;DHT22;3267;48.794;9.928;2022-12-18T17:56:54;1.40;99.90
6468;DHT22;3267;48.794;9.928;2022-12-18T17:59:23;2.50;99.90
6468;DHT22;3267;48.794;9.928;2022-12-18T18:01:49;2.60;99.90
6468;DHT22;3267;48.794;9.928;2022-12-18T18:04:15;2.20;99.90
6468;DHT22;3267;48.794;9.928;2022-12-18T18:06:41;2.10;99.90
6468;DHT22;3267;48.794;9.928;2022-12-18T18:09:07;1.90;99.90
6468;DHT22;3267;48.794;9.928;2022-12-18T18:11:33;1.80;99.90
6468;DHT22;3267;48.794;9.928;2022-12-18T18:14:19;2.10;99.90
6468;DHT22;3267;48.794;9.928;2022-12-18T18:16:47;2.70;99.90
6468;DHT22;3267;48.794;9.928;2022-12-18T18:19:17;3.50;99.90
6468;DHT22;3267;48.794;9.928;2022-12-18T18:21:45;4.70;99.90
6468;DHT22;3267;48.794;9.928;2022-12-18T18:24:12;2.60;99.90
6468;DHT22;3267;48.794;9.928;2022-12-18T18:26:39;2.50;99.90
6468;DHT22;3267;48.794;9.928;2022-12-18T18:29:21;2.40;99.90
6468;DHT22;3267;48.794;9.928;2022-12-18T18:31:47;2.30;99.90
6468;DHT22;3267;48.794;9.928;2022-12-18T18:34:19;2.00;99.90
6468;DHT22;3267;48.794;9.928;2022-12-18T18:36:45;1.80;99.90
6468;DHT22;3267;48.794;9.928;2022-12-18T18:39:13;2.00;99.90
6468;DHT22;3267;48.794;9.928;2022-12-18T18:41:39;1.50;99.90
6468;DHT22;3267;48.794;9.928;2022-12-18T18:44:05;1.80;99.90
6468;DHT22;3267;48.794;9.928;2022-12-18T18:46:31;1.80;99.90
6468;DHT22;3267;48.794;9.928;2022-12-18T18:48:57;1.80;99.90
6468;DHT22;3267;48.794;9.928;2022-12-18T18:51:23;2.40;99.90
6468;DHT22;3267;48.794;9.928;2022-12-18T18:53:51;2.10;99.90
6468;DHT22;3267;48.794;9.928;2022-12-18T18:56:20;2.80;99.90
6468;DHT22;3267;48.794;9.928;2022-12-18T18:58:46;2.40;99.90
6468;DHT22;3267;48.794;9.928;2022-12-18T19:01:17;2.20;99.90
6468;DHT22;3267;48.794;9.928;2022-12-18T19:03:43;2.10;99.90
6468;DHT22;3267;48.794;9.928;2022-12-18T19:06:15;2.00;99.90
6468;DHT22;3267;48.794;9.928;2022-12-18T19:08:41;1.90;99.90
6468;DHT22;3267;48.794;9.928;2022-12-18T19:11:08;1.90;99.90
6468;DHT22;3267;48.794;9.928;2022-12-18T19:13:59;2.40;99.90
6468;DHT22;3267;48.794;9.928;2022-12-18T19:16:26;2.50;99.90
6468;DHT22;3267;48.794;9.928;2022-12-18T19:18:53;3.00;99.90
6468;DHT22;3267;48.794;9.928;2022-12-18T19:21:21;2.80;99.90
6468;DHT22;3267;48.794;9.928;2022-12-18T19:26:14;2.20;99.90
6468;DHT22;3267;48.794;9.928;2022-12-18T19:28:40;2.20;99.90
6468;DHT22;3267;48.794;9.928;2022-12-18T19:31:08;2.00;99.90
6468;DHT22;3267;48.794;9.928;2022-12-18T19:33:37;2.00;99.90
6468;DHT22;3267;48.794;9.928;2022-12-18T19:36:20;2.50;99.90
6468;DHT22;3267;48.794;9.928;2022-12-18T19:38:48;2.30;99.90
6468;DHT22;3267;48.794;9.928;2022-12-18T19:41:15;3.40;99.90
6468;DHT22;3267;48.794;9.928;2022-12-18T19:43:43;3.00;99.90
6468;DHT22;3267;48.794;9.928;2022-12-18T19:46:12;3.70;99.90
6468;DHT22;3267;48.794;9.928;2022-12-18T19:48:39;4.50;99.90
6468;DHT22;3267;48.794;9.928;2022-12-18T19:51:18;4.40;99.90
6468;DHT22;3267;48.794;9.928;2022-12-18T19:53:44;4.60;99.90
6468;DHT22;3267;48.794;9.928;2022-12-18T19:56:15;4.60;99.90
6468;DHT22;3267;48.794;9.928;2022-12-18T19:58:43;4.00;99.90
6468;DHT22;3267;48.794;9.928;2022-12-18T20:01:09;4.40;99.90
6468;DHT22;3267;48.794;9.928;2022-12-18T20:03:35;4.80;99.90
6468;DHT22;3267;48.794;9.928;2022-12-18T20:06:10;4.80;99.90
6468;DHT22;3267;48.794;9.928;2022-12-18T20:08:36;4.40;99.90
6468;DHT22;3267;48.794;9.928;2022-12-18T20:11:02;4.80;99.90
6468;DHT22;3267;48.794;9.928;2022-12-18T20:13:28;4.80;99.90
6468;DHT22;3267;48.794;9.928;2022-12-18T20:15:54;5.20;99.90
6468;DHT22;3267;48.794;9.928;2022-12-18T20:18:19;5.40;99.90
6468;DHT22;3267;48.794;9.928;2022-12-18T20:20:45;5.40;99.90
6468;DHT22;3267;48.794;9.928;2022-12-18T20:23:11;5.90;99.90
6468;DHT22;3267;48.794;9.928;2022-12-18T20:25:37;5.80;99.90
6468;DHT22;3267;48.794;9.928;2022-12-18T20:28:04;5.40;99.90
6468;DHT22;3267;48.794;9.928;2022-12-18T20:30:30;5.30;99.90
6468;DHT22;3267;48.794;9.928;2022-12-18T20:32:56;5.30;99.90
6468;DHT22;3267;48.794;9.928;2022-12-18T20:35:22;6.10;99.90
6468;DHT22;3267;48.794;9.928;2022-12-18T20:37:48;6.10;99.90
6468;DHT22;3267;48.794;9.928;2022-12-18T20:40:14;5.90;99.90
6468;DHT22;3267;48.794;9.928;2022-12-18T20:42:40;5.20;99.90
6468;DHT22;3267;48.794;9.928;2022-12-18T20:45:06;5.20;99.90
6468;DHT22;3267;48.794;9.928;2022-12-18T20:47:32;4.70;99.90
6468;DHT22;3267;48.794;9.928;2022-12-18T20:49:58;6.80;99.90
6468;DHT22;3267;48.794;9.928;2022-12-18T20:52:25;4.20;99.90
6468;DHT22;3267;48.794;9.928;2022-12-18T20:54:51;4.00;99.90
6468;DHT22;3267;48.794;9.928;2022-12-18T20:57:17;4.00;99.90
6468;DHT22;3267;48.794;9.928;2022-12-18T20:59:42;4.10;99.90
6468;DHT22;3267;48.794;9.928;2022-12-18T21:02:11;4.30;99.90
6468;DHT22;3267;48.794;9.928;2022-12-18T21:04:37;3.40;99.90
6468;DHT22;3267;48.794;9.928;2022-12-18T21:07:04;3.40;99.90
6468;DHT22;3267;48.794;9.928;2022-12-18T21:09:30;3.90;99.90
6468;DHT22;3267;48.794;9.928;2022-12-18T21:11:57;5.10;99.90
6468;DHT22;3267;48.794;9.928;2022-12-18T21:14:42;5.80;99.90
6468;DHT22;3267;48.794;9.928;2022-12-18T21:17:08;6.00;99.90
6468;DHT22;3267;48.794;9.928;2022-12-18T21:19:35;6.00;99.90
6468;DHT22;3267;48.794;9.928;2022-12-18T21:22:00;5.70;99.90
6468;DHT22;3267;48.794;9.928;2022-12-18T21:24:26;4.40;99.90
6468;DHT22;3267;48.794;9.928;2022-12-18T21:26:55;6.70;99.90
6468;DHT22;3267;48.794;9.928;2022-12-18T21:29:25;3.80;99.90
6468;DHT22;3267;48.794;9.928;2022-12-18T21:31:52;3.30;99.90
6468;DHT22;3267;48.794;9.928;2022-12-18T21:34:21;3.50;99.90
6468;DHT22;3267;48.794;9.928;2022-12-18T21:36:48;3.50;99.90
6468;DHT22;3267;48.794;9.928;2022-12-18T21:39:14;1.60;99.90
6468;DHT22;3267;48.794;9.928;2022-12-18T21:41:41;2.80;99.90
6468;DHT22;3267;48.794;9.928;2022-12-18T21:44:25;2.80;99.90
6468;DHT22;3267;48.794;9.928;2022-12-18T21:49:18;2.60;99.90
6468;DHT22;3267;48.794;9.928;2022-12-18T21:51:52;2.30;99.90
6468;DHT22;3267;48.794;9.928;2022-12-18T21:54:18;2.10;99.90
6468;DHT22;3267;48.794;9.928;2022-12-18T21:57:02;2.10;99.90
6468;DHT22;3267;48.794;9.928;2022-12-18T21:59:32;2.10;99.90
6468;DHT22;3267;48.794;9.928;2022-12-18T22:02:00;2.30;99.90
6468;DHT22;3267;48.794;9.928;2022-12-18T22:04:27;3.30;99.90
6468;DHT22;3267;48.794;9.928;2022-12-18T22:06:53;3.30;99.90
6468;DHT22;3267;48.794;9.928;2022-12-18T22:09:21;4.30;99.90
6468;DHT22;3267;48.794;9.928;2022-12-18T22:11:48;4.50;99.90
6468;DHT22;3267;48.794;9.928;2022-12-18T22:14:15;3.90;99.90
6468;DHT22;3267;48.794;9.928;2022-12-18T22:16:41;3.50;99.90
6468;DHT22;3267;48.794;9.928;2022-12-18T22:19:09;4.00;99.90
6468;DHT22;3267;48.794;9.928;2022-12-18T22:21:37;3.10;99.90
6468;DHT22;3267;48.794;9.928;2022-12-18T22:24:06;3.10;99.90
6468;DHT22;3267;48.794;9.928;2022-12-18T22:26:34;3.90;99.90
